Time;durP1;ratioP1;P1;durP2;ratioP2;P2;SDS_P1;SDS_P2;PMS_P1;PMS_P2;Temp;Humidity;BMP_temperature;BMP_pressure;BME280_temperature;BME280_humidity;BME280_pressure;Samples;Min_cycle;Max_cycle;Signal;HPM_P1;HPM_P2
2021/12/24 00:01:26;;;;;;;4.63;2.60;;;;;;;;;;5075522;28;20062;-75
2021/12/24 00:03:54;;;;;;;6.53;3.00;;;;;;;;;;5056452;28;20037;-79
2021/12/24 00:06:21;;;;;;;3.88;2.80;;;;;;;;;;5074817;28;20044;-80
2021/12/24 00:08:49;;;;;;;4.25;2.53;;;;;;;;;;5075167;28;20046;-75
2021/12/24 00:11:17;;;;;;;5.95;2.80;;;;;;;;;;5057267;28;20484;-79
2021/12/24 00:13:48;;;;;;;3.20;2.85;;;;;;;;;;5074634;28;20032;-74
2021/12/24 00:17:02;;;;;;;3.22;2.50;;;;;;;;;;5057001;28;20440;-74
2021/12/24 00:35:53;;;;;;;4.20;2.78;;;;;;;;;;5056359;28;20044;-80
2021/12/24 00:38:21;;;;;;;3.25;2.95;;;;;;;;;;5054095;28;20127;-75
2021/12/24 00:40:50;;;;;;;4.43;2.90;;;;;;;;;;5053857;28;20037;-80
2021/12/24 00:43:21;;;;;;;3.35;2.85;;;;;;;;;;5054587;28;20041;-75
2021/12/24 00:45:52;;;;;;;3.58;2.78;;;;;;;;;;5054035;28;20517;-80
2021/12/24 00:48:22;;;;;;;3.78;2.70;;;;;;;;;;5054238;28;20041;-80
2021/12/24 00:56:16;;;;;;;3.00;2.40;;;;;;;;;;5035853;28;20439;-74
2021/12/24 00:58:44;;;;;;;5.13;2.70;;;;;;;;;;5032041;28;20076;-81
2021/12/24 01:01:13;;;;;;;5.22;3.58;;;;;;;;;;5035750;28;20052;-74
2021/12/24 01:03:42;;;;;;;5.82;2.42;;;;;;;;;;5035275;28;20037;-81
2021/12/24 01:06:11;;;;;;;5.28;2.83;;;;;;;;;;5035729;28;20037;-81
2021/12/24 01:08:41;;;;;;;3.67;2.60;;;;;;;;;;5035623;28;20155;-81
2021/12/24 01:11:10;;;;;;;3.13;2.55;;;;;;;;;;5035407;28;20049;-75
2021/12/24 01:13:38;;;;;;;3.47;2.78;;;;;;;;;;5052974;28;20040;-80
2021/12/24 01:16:16;;;;;;;3.17;2.58;;;;;;;;;;5034990;28;20484;-82
2021/12/24 01:18:57;;;;;;;2.58;2.30;;;;;;;;;;5035453;28;20163;-82
2021/12/24 01:24:18;;;;;;;3.92;2.70;;;;;;;;;;5052994;28;20128;-75
2021/12/24 01:27:01;;;;;;;2.35;2.05;;;;;;;;;;5034853;28;20496;-81
2021/12/24 01:29:44;;;;;;;8.23;2.63;;;;;;;;;;5037834;28;20041;-75
2021/12/24 01:38:24;;;;;;;3.67;2.50;;;;;;;;;;5034926;28;20128;-75
2021/12/24 01:43:28;;;;;;;3.30;2.33;;;;;;;;;;5034746;28;20055;-75
2021/12/24 01:45:58;;;;;;;5.22;2.45;;;;;;;;;;5034830;28;20488;-81
2021/12/24 01:48:29;;;;;;;6.35;2.58;;;;;;;;;;5051378;28;20041;-75
2021/12/24 01:50:57;;;;;;;4.22;2.40;;;;;;;;;;5052539;28;20120;-75
2021/12/24 01:53:43;;;;;;;3.55;2.42;;;;;;;;;;5034536;28;20053;-80
2021/12/24 01:56:13;;;;;;;3.70;2.20;;;;;;;;;;5019010;28;20523;-74
2021/12/24 01:58:42;;;;;;;2.63;2.42;;;;;;;;;;5049154;28;20049;-79
2021/12/24 02:01:13;;;;;;;4.28;2.60;;;;;;;;;;5034405;28;20527;-75
2021/12/24 02:03:43;;;;;;;5.78;2.70;;;;;;;;;;5052256;28;20120;-79
2021/12/24 02:06:11;;;;;;;3.63;2.70;;;;;;;;;;5034525;28;20044;-78
2021/12/24 02:08:38;;;;;;;2.53;2.30;;;;;;;;;;5034718;28;20037;-82
2021/12/24 02:11:11;;;;;;;3.38;2.42;;;;;;;;;;5034519;28;20072;-79
2021/12/24 02:13:40;;;;;;;4.10;2.33;;;;;;;;;;5034715;28;20052;-79
2021/12/24 02:30:17;;;;;;;2.50;2.30;;;;;;;;;;4998185;28;20469;-77
2021/12/24 02:32:47;;;;;;;;;;;;;;;;;;5050364;28;20319;-75
2021/12/24 02:35:18;;;;;;;2.65;2.10;;;;;;;;;;5041438;28;19921;-75
2021/12/24 02:37:46;;;;;;;2.75;2.35;;;;;;;;;;5059345;28;20049;-81
2021/12/24 02:40:19;;;;;;;3.53;2.20;;;;;;;;;;5009325;28;20041;-80
2021/12/24 02:42:52;;;;;;;3.25;2.33;;;;;;;;;;5059436;28;20075;-80
2021/12/24 02:45:22;;;;;;;4.20;1.90;;;;;;;;;;5059114;28;20052;-76
2021/12/24 02:55:40;;;;;;;4.28;2.17;;;;;;;;;;5027582;28;20499;-81
2021/12/24 02:58:11;;;;;;;5.93;2.35;;;;;;;;;;5041574;28;20045;-80
2021/12/24 03:00:39;;;;;;;3.00;2.33;;;;;;;;;;5041148;28;20052;-75
2021/12/24 03:03:06;;;;;;;3.97;2.40;;;;;;;;;;5059111;28;20037;-80
2021/12/24 03:05:37;;;;;;;2.92;2.60;;;;;;;;;;5025330;28;20045;-80
2021/12/24 03:08:04;;;;;;;3.90;2.45;;;;;;;;;;5039191;28;20052;-80
2021/12/24 03:10:32;;;;;;;2.95;2.53;;;;;;;;;;5059390;28;20128;-81
2021/12/24 03:13:00;;;;;;;2.88;2.55;;;;;;;;;;5059038;28;20474;-80
2021/12/24 03:15:29;;;;;;;4.03;2.65;;;;;;;;;;5040848;28;20075;-80
2021/12/24 03:18:00;;;;;;;4.25;2.50;;;;;;;;;;5041224;28;20044;-75
2021/12/24 03:20:41;;;;;;;3.60;2.50;;;;;;;;;;5041095;28;20106;-80
2021/12/24 03:23:22;;;;;;;3.60;2.25;;;;;;;;;;5059286;28;20112;-81
2021/12/24 03:25:53;;;;;;;6.53;2.40;;;;;;;;;;5058854;28;20065;-76
2021/12/24 03:28:25;;;;;;;2.40;2.25;;;;;;;;;;5058798;28;20040;-81
2021/12/24 03:30:53;;;;;;;3.05;2.25;;;;;;;;;;5040880;28;20045;-80
2021/12/24 03:33:24;;;;;;;5.63;2.90;;;;;;;;;;5040335;28;20051;-76
2021/12/24 03:35:51;;;;;;;2.70;2.40;;;;;;;;;;5041152;28;20079;-75
2021/12/24 03:38:20;;;;;;;3.42;2.95;;;;;;;;;;5040598;28;20041;-76
2021/12/24 03:40:49;;;;;;;3.63;2.95;;;;;;;;;;5036125;28;20055;-75
2021/12/24 03:43:17;;;;;;;4.20;3.05;;;;;;;;;;5055832;28;20513;-75
2021/12/24 03:46:00;;;;;;;7.90;3.92;;;;;;;;;;5037156;28;20083;-75
2021/12/24 03:48:45;;;;;;;9.18;4.30;;;;;;;;;;5037904;28;20056;-75
2021/12/24 03:56:54;;;;;;;6.90;3.90;;;;;;;;;;5055234;28;20056;-76
2021/12/24 03:59:43;;;;;;;5.50;3.33;;;;;;;;;;5055687;28;20374;-75
2021/12/24 04:02:32;;;;;;;7.00;3.63;;;;;;;;;;5033923;28;20068;-79
2021/12/24 04:05:22;;;;;;;3.80;2.67;;;;;;;;;;5054987;28;20087;-80
2021/12/24 04:08:08;;;;;;;3.50;2.63;;;;;;;;;;5055155;28;20056;-80
2021/12/24 04:10:53;;;;;;;15.50;3.28;;;;;;;;;;5037663;28;20488;-80
2021/12/24 04:13:35;;;;;;;2.80;2.58;;;;;;;;;;5041055;28;20467;-74
2021/12/24 04:16:06;;;;;;;4.50;2.83;;;;;;;;;;5057586;28;20040;-76
2021/12/24 04:19:23;;;;;;;4.88;2.92;;;;;;;;;;5056936;28;20044;-75
2021/12/24 04:24:52;;;;;;;2.60;2.35;;;;;;;;;;5056955;28;20098;-81
2021/12/24 04:27:22;;;;;;;3.05;2.53;;;;;;;;;;5056867;28;20044;-80
2021/12/24 04:29:53;;;;;;;2.83;2.33;;;;;;;;;;5056469;28;20055;-76
2021/12/24 04:32:26;;;;;;;3.45;2.33;;;;;;;;;;5056196;28;20143;-80
2021/12/24 04:35:15;;;;;;;3.40;2.65;;;;;;;;;;5041495;28;20127;-76
2021/12/24 04:51:56;;;;;;;3.42;2.53;;;;;;;;;;5034935;28;20099;-80
2021/12/24 05:03:06;;;;;;;7.57;3.00;;;;;;;;;;5022521;28;20045;-76
2021/12/24 05:05:49;;;;;;;7.53;3.70;;;;;;;;;;5036262;28;20094;-80
2021/12/24 05:08:24;;;;;;;7.05;3.55;;;;;;;;;;5036268;28;20393;-75
2021/12/24 05:10:52;;;;;;;4.38;3.50;;;;;;;;;;5036018;28;20076;-76
2021/12/24 05:13:23;;;;;;;9.88;4.20;;;;;;;;;;5036115;28;20075;-80
2021/12/24 05:21:32;;;;;;;4.97;3.60;;;;;;;;;;5036058;28;20044;-75
2021/12/24 05:21:51;;;;;;;6.15;3.25;;;;;;;;;;5053661;28;20441;-80
2021/12/24 05:24:21;;;;;;;4.68;3.03;;;;;;;;;;5036214;28;20037;-75
2021/12/24 05:26:53;;;;;;;3.35;2.75;;;;;;;;;;5035613;28;20067;-74
2021/12/24 05:29:22;;;;;;;4.22;2.70;;;;;;;;;;5053593;28;20041;-75
2021/12/24 05:31:49;;;;;;;4.80;3.40;;;;;;;;;;5035599;28;20041;-75
2021/12/24 05:34:20;;;;;;;9.18;3.55;;;;;;;;;;5019705;28;20079;-76
2021/12/24 05:36:50;;;;;;;6.25;3.17;;;;;;;;;;5053657;28;20135;-76
2021/12/24 05:39:18;;;;;;;3.78;2.97;;;;;;;;;;5034717;28;20063;-81
2021/12/24 05:41:47;;;;;;;3.40;2.90;;;;;;;;;;5035611;28;20075;-80
2021/12/24 05:44:17;;;;;;;5.47;2.88;;;;;;;;;;5035438;28;20045;-80
2021/12/24 05:46:51;;;;;;;4.82;3.33;;;;;;;;;;5051445;28;20139;-81
2021/12/24 05:49:37;;;;;;;4.78;2.97;;;;;;;;;;5073576;28;20078;-81
2021/12/24 05:52:25;;;;;;;3.88;2.78;;;;;;;;;;5041540;28;20052;-75
2021/12/24 05:55:02;;;;;;;5.57;3.13;;;;;;;;;;5055237;28;20044;-76
2021/12/24 05:57:29;;;;;;;6.63;3.30;;;;;;;;;;5038621;28;20048;-76
2021/12/24 05:59:57;;;;;;;6.00;3.58;;;;;;;;;;5073469;28;20464;-80
2021/12/24 06:02:26;;;;;;;5.32;3.00;;;;;;;;;;5054750;28;20506;-75
2021/12/24 06:04:55;;;;;;;4.80;3.45;;;;;;;;;;5055131;28;20036;-75
2021/12/24 06:07:22;;;;;;;4.40;3.42;;;;;;;;;;5055533;28;20060;-76
2021/12/24 06:09:53;;;;;;;6.35;3.67;;;;;;;;;;5054499;28;20039;-75
2021/12/24 06:12:20;;;;;;;10.63;3.85;;;;;;;;;;5054902;28;20047;-80
2021/12/24 06:14:54;;;;;;;6.07;3.70;;;;;;;;;;5055453;28;20048;-81
2021/12/24 06:17:23;;;;;;;7.05;3.95;;;;;;;;;;5072606;28;20068;-76
2021/12/24 06:19:52;;;;;;;5.97;3.60;;;;;;;;;;5038792;28;20469;-76
2021/12/24 06:22:23;;;;;;;5.40;4.20;;;;;;;;;;5072661;28;20395;-81
2021/12/24 06:24:53;;;;;;;4.40;3.80;;;;;;;;;;5073087;28;20036;-76
2021/12/24 06:27:21;;;;;;;5.13;4.00;;;;;;;;;;5054819;28;20037;-75
2021/12/24 06:29:50;;;;;;;6.93;4.63;;;;;;;;;;5072935;28;20050;-81
2021/12/24 06:32:17;;;;;;;5.78;3.80;;;;;;;;;;5072135;28;20511;-76
2021/12/24 06:34:48;;;;;;;4.63;3.40;;;;;;;;;;5072894;28;20044;-75
2021/12/24 06:37:17;;;;;;;8.93;3.35;;;;;;;;;;5054978;28;20040;-76
2021/12/24 06:39:48;;;;;;;4.35;3.25;;;;;;;;;;5072449;28;20054;-80
2021/12/24 06:42:26;;;;;;;8.40;3.50;;;;;;;;;;5072611;28;20075;-82
2021/12/24 06:44:59;;;;;;;3.20;2.72;;;;;;;;;;5071980;28;20037;-76
2021/12/24 06:47:27;;;;;;;4.40;2.55;;;;;;;;;;5052453;28;20064;-76
2021/12/24 06:49:55;;;;;;;3.00;2.35;;;;;;;;;;5051700;28;20506;-77
2021/12/24 06:52:23;;;;;;;7.25;5.28;;;;;;;;;;5052137;28;20136;-76
2021/12/24 06:54:51;;;;;;;7.85;5.50;;;;;;;;;;5034820;28;20059;-83
2021/12/24 06:57:24;;;;;;;9.10;6.15;;;;;;;;;;5052443;28;20045;-77
2021/12/24 06:59:55;;;;;;;10.60;5.22;;;;;;;;;;5034675;28;20045;-77
2021/12/24 07:02:22;;;;;;;7.93;4.78;;;;;;;;;;5018122;28;20132;-76
2021/12/24 07:04:50;;;;;;;5.43;4.28;;;;;;;;;;5052087;28;20069;-81
2021/12/24 07:07:18;;;;;;;5.75;4.30;;;;;;;;;;5035019;28;20103;-82
2021/12/24 07:09:46;;;;;;;15.13;9.65;;;;;;;;;;5052456;28;20073;-82
2021/12/24 07:12:14;;;;;;;12.90;9.60;;;;;;;;;;5052478;28;20128;-82
2021/12/24 07:14:42;;;;;;;13.45;8.90;;;;;;;;;;5037150;28;20496;-77
2021/12/24 07:17:10;;;;;;;13.70;7.95;;;;;;;;;;5055279;28;20135;-81
2021/12/24 07:19:39;;;;;;;11.10;6.53;;;;;;;;;;5056025;28;20048;-76
2021/12/24 07:22:07;;;;;;;10.65;6.53;;;;;;;;;;5055744;28;20452;-76
2021/12/24 07:24:36;;;;;;;12.52;7.47;;;;;;;;;;5056178;28;20045;-81
2021/12/24 07:27:07;;;;;;;12.10;7.10;;;;;;;;;;5056455;28;20045;-76
2021/12/24 07:29:42;;;;;;;12.23;8.43;;;;;;;;;;5039125;28;20090;-81
2021/12/24 07:32:10;;;;;;;12.35;7.50;;;;;;;;;;5055802;28;20045;-81
2021/12/24 07:34:40;;;;;;;16.38;8.38;;;;;;;;;;5055869;28;20041;-83
2021/12/24 07:37:09;;;;;;;11.32;6.65;;;;;;;;;;5055668;28;20408;-82
2021/12/24 07:39:36;;;;;;;13.82;7.22;;;;;;;;;;5055400;28;20415;-78
2021/12/24 07:42:06;;;;;;;9.40;6.13;;;;;;;;;;5038469;28;20072;-80
2021/12/24 07:44:35;;;;;;;15.30;9.95;;;;;;;;;;5056050;28;20035;-80
2021/12/24 07:47:06;;;;;;;20.95;10.77;;;;;;;;;;5055780;28;20055;-80
2021/12/24 07:49:41;;;;;;;15.85;8.60;;;;;;;;;;5075404;28;20108;-77
2021/12/24 07:52:09;;;;;;;11.88;7.95;;;;;;;;;;5047006;28;20032;-80
2021/12/24 07:54:38;;;;;;;15.95;7.82;;;;;;;;;;5067309;28;20063;-81
2021/12/24 07:57:06;;;;;;;10.13;5.93;;;;;;;;;;5065147;28;20047;-80
2021/12/24 07:59:38;;;;;;;5.50;3.97;;;;;;;;;;5064792;28;20049;-77
2021/12/24 08:02:10;;;;;;;8.88;4.30;;;;;;;;;;5041243;28;20542;-77
2021/12/24 08:04:39;;;;;;;5.88;4.18;;;;;;;;;;5055403;28;20086;-80
2021/12/24 08:07:07;;;;;;;6.93;4.40;;;;;;;;;;5066161;28;20037;-80
2021/12/24 08:09:40;;;;;;;7.03;4.70;;;;;;;;;;5055860;28;20483;-79
2021/12/24 08:12:10;;;;;;;8.75;5.20;;;;;;;;;;5055051;28;20052;-81
2021/12/24 08:14:38;;;;;;;6.15;4.90;;;;;;;;;;5037415;28;20136;-77
2021/12/24 08:17:06;;;;;;;7.40;4.60;;;;;;;;;;5054925;28;20048;-81
2021/12/24 08:19:35;;;;;;;9.18;4.43;;;;;;;;;;5037276;28;20080;-79
2021/12/24 08:22:03;;;;;;;7.57;4.13;;;;;;;;;;5054996;28;20045;-80
2021/12/24 08:24:31;;;;;;;8.13;4.45;;;;;;;;;;5036412;28;20136;-76
2021/12/24 08:26:59;;;;;;;7.70;4.18;;;;;;;;;;5036668;28;20384;-81
2021/12/24 08:29:27;;;;;;;5.68;3.95;;;;;;;;;;5020344;28;20045;-79
2021/12/24 08:31:55;;;;;;;5.60;4.35;;;;;;;;;;5037137;28;20045;-77
2021/12/24 08:34:23;;;;;;;6.07;4.07;;;;;;;;;;5054931;28;20057;-81
2021/12/24 08:36:52;;;;;;;6.35;4.40;;;;;;;;;;5037230;28;20037;-81
2021/12/24 08:39:21;;;;;;;5.43;3.63;;;;;;;;;;5073648;28;20036;-80
2021/12/24 08:41:54;;;;;;;5.05;3.85;;;;;;;;;;5055956;28;20459;-77
2021/12/24 08:44:25;;;;;;;4.63;3.17;;;;;;;;;;5075513;28;20484;-76
2021/12/24 08:46:52;;;;;;;8.10;3.80;;;;;;;;;;5074915;28;20048;-80
2021/12/24 08:49:21;;;;;;;10.18;3.20;;;;;;;;;;5074141;28;20039;-80
2021/12/24 08:51:49;;;;;;;3.85;2.90;;;;;;;;;;5055946;28;20067;-78
2021/12/24 08:54:17;;;;;;;3.05;2.33;;;;;;;;;;5056106;28;20068;-81
2021/12/24 08:56:49;;;;;;;6.82;3.00;;;;;;;;;;5071694;28;20074;-81
2021/12/24 08:59:17;;;;;;;6.47;3.78;;;;;;;;;;5074525;28;20048;-80
2021/12/24 09:01:45;;;;;;;5.68;3.22;;;;;;;;;;5056468;28;20068;-81
2021/12/24 09:04:13;;;;;;;6.40;4.05;;;;;;;;;;5055804;28;20056;-78
2021/12/24 09:06:41;;;;;;;5.05;3.17;;;;;;;;;;5055264;28;20135;-78
2021/12/24 09:09:10;;;;;;;6.57;3.13;;;;;;;;;;5055659;28;20040;-80
2021/12/24 09:11:39;;;;;;;4.57;2.92;;;;;;;;;;5073698;28;20110;-80
2021/12/24 09:14:06;;;;;;;4.38;3.30;;;;;;;;;;5073191;28;20036;-80
2021/12/24 09:16:35;;;;;;;4.88;2.97;;;;;;;;;;5073423;28;20032;-81
2021/12/24 09:19:08;;;;;;;3.33;2.40;;;;;;;;;;5073593;28;20075;-80
2021/12/24 09:21:35;;;;;;;;;;;;;;;;;;5072471;28;20072;-80
2021/12/24 09:24:06;;;;;;;4.15;2.30;;;;;;;;;;5073782;28;19920;-80
2021/12/24 09:26:36;;;;;;;3.25;2.42;;;;;;;;;;5073806;28;20071;-77
2021/12/24 09:29:05;;;;;;;4.18;1.90;;;;;;;;;;5073390;28;20044;-78
2021/12/24 09:31:32;;;;;;;3.03;2.20;;;;;;;;;;5055524;28;20086;-81
2021/12/24 09:34:01;;;;;;;3.35;2.45;;;;;;;;;;5073340;28;20120;-80
2021/12/24 09:36:29;;;;;;;5.03;2.63;;;;;;;;;;5072588;28;20045;-78
2021/12/24 09:38:59;;;;;;;2.60;2.40;;;;;;;;;;5056179;28;20060;-81
2021/12/24 09:41:26;;;;;;;3.58;2.10;;;;;;;;;;5073370;28;20068;-79
2021/12/24 09:43:56;;;;;;;2.95;2.65;;;;;;;;;;5073516;28;20063;-79
2021/12/24 09:46:27;;;;;;;3.63;3.00;;;;;;;;;;5073286;28;20051;-79
2021/12/24 09:48:55;;;;;;;2.97;2.33;;;;;;;;;;5073318;28;20110;-80
2021/12/24 09:51:26;;;;;;;2.50;2.30;;;;;;;;;;5055445;28;20036;-78
2021/12/24 09:53:58;;;;;;;2.53;2.28;;;;;;;;;;5054816;28;20048;-77
2021/12/24 09:56:25;;;;;;;2.72;2.10;;;;;;;;;;5072917;28;20040;-77
2021/12/24 09:58:53;;;;;;;2.40;2.20;;;;;;;;;;5072673;28;20032;-81
2021/12/24 10:01:32;;;;;;;2.45;2.25;;;;;;;;;;5070344;28;20043;-78
2021/12/24 10:04:02;;;;;;;4.13;2.42;;;;;;;;;;5067157;28;20032;-80
2021/12/24 10:06:30;;;;;;;4.10;2.65;;;;;;;;;;5054544;28;20127;-81
2021/12/24 10:09:16;;;;;;;6.10;2.47;;;;;;;;;;5072579;28;20041;-84
2021/12/24 10:11:50;;;;;;;3.10;2.42;;;;;;;;;;5070952;28;20037;-82
2021/12/24 10:14:18;;;;;;;;;;;;;;;;;;5054729;28;20049;-80
2021/12/24 10:16:46;;;;;;;2.15;1.95;;;;;;;;;;5072298;28;19921;-81
2021/12/24 10:19:14;;;;;;;3.70;2.63;;;;;;;;;;5068944;28;20055;-81
2021/12/24 10:21:44;;;;;;;3.40;2.53;;;;;;;;;;5062660;28;20043;-79
2021/12/24 10:24:13;;;;;;;6.00;2.83;;;;;;;;;;5068472;28;20128;-81
2021/12/24 10:26:51;;;;;;;5.60;3.03;;;;;;;;;;5051576;28;20071;-80
2021/12/24 10:29:20;;;;;;;6.90;3.33;;;;;;;;;;5054635;28;20043;-81
2021/12/24 10:31:49;;;;;;;3.90;2.65;;;;;;;;;;5055521;28;20033;-79
2021/12/24 10:34:20;;;;;;;3.83;2.92;;;;;;;;;;5054166;28;20060;-80
2021/12/24 10:36:56;;;;;;;4.22;2.67;;;;;;;;;;5072734;28;20072;-80
2021/12/24 10:39:33;;;;;;;4.63;2.72;;;;;;;;;;5072153;28;20123;-80
2021/12/24 10:42:02;;;;;;;3.97;2.75;;;;;;;;;;5071677;28;20123;-81
2021/12/24 10:44:34;;;;;;;4.80;2.50;;;;;;;;;;5109269;23;20132;-82
2021/12/24 10:47:05;;;;;;;3.42;2.55;;;;;;;;;;5039177;28;20045;-80
2021/12/24 10:54:56;;;;;;;3.78;2.05;;;;;;;;;;5053303;28;20045;-82
2021/12/24 10:57:25;;;;;;;2.35;1.60;;;;;;;;;;5037240;28;20045;-82
2021/12/24 10:59:54;;;;;;;3.88;1.95;;;;;;;;;;5038249;28;20041;-81
2021/12/24 11:02:23;;;;;;;2.88;1.90;;;;;;;;;;5057311;28;20127;-78
2021/12/24 11:04:53;;;;;;;4.18;1.80;;;;;;;;;;5056113;28;20496;-79
2021/12/24 11:07:31;;;;;;;3.70;1.92;;;;;;;;;;5056357;28;20123;-78
2021/12/24 11:10:25;;;;;;;4.13;1.83;;;;;;;;;;5056250;28;20579;-76
2021/12/24 11:12:54;;;;;;;3.03;1.77;;;;;;;;;;5046296;28;20053;-80
2021/12/24 11:15:27;;;;;;;2.83;1.90;;;;;;;;;;5056535;28;20045;-81
2021/12/24 11:18:06;;;;;;;3.33;2.00;;;;;;;;;;5038437;28;20052;-79
2021/12/24 11:20:34;;;;;;;2.67;1.83;;;;;;;;;;5034828;28;20124;-77
2021/12/24 11:23:08;;;;;;;3.40;2.00;;;;;;;;;;5036116;28;20044;-79
2021/12/24 11:25:40;;;;;;;2.17;1.88;;;;;;;;;;5036123;28;20483;-79
2021/12/24 11:28:08;;;;;;;4.53;2.25;;;;;;;;;;5032933;28;20128;-80
2021/12/24 11:30:37;;;;;;;2.45;2.22;;;;;;;;;;5035801;28;20404;-81
2021/12/24 11:33:05;;;;;;;3.70;2.05;;;;;;;;;;5035939;28;20050;-78
2021/12/24 11:35:33;;;;;;;3.13;1.63;;;;;;;;;;5036309;28;20499;-81
2021/12/24 11:38:02;;;;;;;2.78;1.67;;;;;;;;;;5018407;28;20188;-79
2021/12/24 11:40:30;;;;;;;3.72;1.60;;;;;;;;;;5035418;28;20052;-81
2021/12/24 11:43:00;;;;;;;3.03;1.60;;;;;;;;;;5002031;28;20042;-80
2021/12/24 11:45:28;;;;;;;3.45;1.75;;;;;;;;;;5018013;28;20466;-77
2021/12/24 11:47:58;;;;;;;3.92;1.80;;;;;;;;;;5040612;28;20030;-82
2021/12/24 11:50:30;;;;;;;6.40;2.33;;;;;;;;;;5029148;28;20045;-79
2021/12/24 11:52:59;;;;;;;2.45;1.25;;;;;;;;;;5045297;28;20472;-80
2021/12/24 11:55:33;;;;;;;1.88;1.30;;;;;;;;;;5049453;28;20041;-77
2021/12/24 11:58:02;;;;;;;4.60;1.48;;;;;;;;;;5038218;28;20044;-79
2021/12/24 12:00:33;;;;;;;2.00;1.52;;;;;;;;;;5054038;28;20079;-80
2021/12/24 12:03:01;;;;;;;4.72;1.60;;;;;;;;;;5020873;28;20495;-80
2021/12/24 12:05:37;;;;;;;2.90;1.55;;;;;;;;;;5043361;28;20045;-80
2021/12/24 12:08:37;;;;;;;1.40;1.27;;;;;;;;;;5043738;28;20033;-81
2021/12/24 12:11:16;;;;;;;2.10;1.80;;;;;;;;;;5044964;28;20037;-75
2021/12/24 12:14:05;;;;;;;4.20;2.00;;;;;;;;;;5047957;28;20045;-74
2021/12/24 12:16:41;;;;;;;3.03;1.52;;;;;;;;;;5016910;28;20049;-76
2021/12/24 12:20:01;;;;;;;3.97;1.48;;;;;;;;;;5017790;28;20056;-80
2021/12/24 12:22:30;;;;;;;1.90;1.70;;;;;;;;;;5025101;28;20132;-80
2021/12/24 12:24:59;;;;;;;2.78;1.50;;;;;;;;;;5035136;28;20037;-81
2021/12/24 12:27:50;;;;;;;3.38;1.95;;;;;;;;;;5034807;28;20045;-74
2021/12/24 12:30:21;;;;;;;6.25;1.70;;;;;;;;;;5017070;28;20124;-74
2021/12/24 12:32:50;;;;;;;2.58;1.48;;;;;;;;;;5018018;28;20462;-76
2021/12/24 12:35:18;;;;;;;4.10;1.90;;;;;;;;;;5034793;28;20481;-78
2021/12/24 12:37:57;;;;;;;1.80;1.48;;;;;;;;;;5034783;28;20073;-79
2021/12/24 12:40:31;;;;;;;3.65;2.20;;;;;;;;;;5034560;28;20136;-81
2021/12/24 12:43:20;;;;;;;2.88;1.95;;;;;;;;;;5035054;28;20037;-83
2021/12/24 12:45:48;;;;;;;5.63;1.80;;;;;;;;;;5023658;28;20456;-78
2021/12/24 12:48:23;;;;;;;8.55;5.18;;;;;;;;;;5052613;28;20037;-80
2021/12/24 12:50:52;;;;;;;1.97;1.67;;;;;;;;;;5054483;28;20041;-80
2021/12/24 12:53:22;;;;;;;3.58;2.10;;;;;;;;;;5052431;28;20045;-78
2021/12/24 12:56:10;;;;;;;2.80;1.48;;;;;;;;;;5026093;28;20042;-80
2021/12/24 12:58:40;;;;;;;2.67;1.65;;;;;;;;;;5046216;28;20679;-82
2021/12/24 13:01:12;;;;;;;4.28;1.63;;;;;;;;;;5049606;28;20483;-79
2021/12/24 13:03:58;;;;;;;3.35;1.50;;;;;;;;;;5053093;28;20034;-82
2021/12/24 13:06:25;;;;;;;2.40;1.50;;;;;;;;;;5053824;28;20498;-79
2021/12/24 13:08:56;;;;;;;4.82;1.77;;;;;;;;;;5054071;28;20116;-78
2021/12/24 13:11:24;;;;;;;3.17;1.90;;;;;;;;;;5050575;28;20094;-77
2021/12/24 13:13:57;;;;;;;2.33;1.55;;;;;;;;;;5031755;28;20112;-79
2021/12/24 13:16:32;;;;;;;1.70;1.60;;;;;;;;;;5047665;28;20127;-80
2021/12/24 13:25:13;;;;;;;2.35;1.48;;;;;;;;;;5054043;28;20124;-80
2021/12/24 13:27:51;;;;;;;4.70;1.67;;;;;;;;;;5044889;28;20047;-76
2021/12/24 13:30:20;;;;;;;3.13;1.33;;;;;;;;;;5033148;28;20049;-77
2021/12/24 13:32:51;;;;;;;2.83;1.52;;;;;;;;;;5016636;28;20109;-77
2021/12/24 13:35:24;;;;;;;2.92;1.38;;;;;;;;;;5033719;28;20042;-80
2021/12/24 13:37:53;;;;;;;1.83;1.33;;;;;;;;;;5033564;28;20091;-78
2021/12/24 13:40:22;;;;;;;2.50;1.30;;;;;;;;;;5033293;28;20124;-79
2021/12/24 13:42:52;;;;;;;2.05;1.23;;;;;;;;;;5033845;28;20045;-74
2021/12/24 13:45:25;;;;;;;2.77;1.40;;;;;;;;;;5033535;28;20056;-80
2021/12/24 13:47:58;;;;;;;2.17;1.20;;;;;;;;;;5016051;28;20048;-74
2021/12/24 13:54:31;;;;;;;1.45;1.30;;;;;;;;;;5033140;28;20038;-73
2021/12/24 13:56:08;;;;;;;3.03;1.38;;;;;;;;;;5033303;28;20045;-79
2021/12/24 13:58:35;;;;;;;2.40;1.20;;;;;;;;;;5032974;28;20041;-77
2021/12/24 14:01:05;;;;;;;1.75;1.27;;;;;;;;;;5016068;28;20088;-77
2021/12/24 14:03:35;;;;;;;2.97;1.38;;;;;;;;;;5031904;28;20045;-74
2021/12/24 14:06:05;;;;;;;2.80;1.88;;;;;;;;;;5014544;28;20132;-74
2021/12/24 14:08:39;;;;;;;2.63;1.60;;;;;;;;;;5033012;28;20033;-77
2021/12/24 14:11:12;;;;;;;1.38;1.20;;;;;;;;;;5015445;28;20052;-75
2021/12/24 14:13:46;;;;;;;4.25;1.40;;;;;;;;;;5015174;28;20041;-76
2021/12/24 14:19:19;;;;;;;1.65;1.40;;;;;;;;;;4969945;28;20547;-74
2021/12/24 14:21:48;;;;;;;1.85;1.48;;;;;;;;;;5051948;28;20053;-80
2021/12/24 14:24:21;;;;;;;2.38;1.80;;;;;;;;;;5033591;28;20041;-80
2021/12/24 14:27:01;;;;;;;3.55;2.00;;;;;;;;;;5034953;28;20055;-82
2021/12/24 14:29:45;;;;;;;5.45;2.00;;;;;;;;;;5052522;28;20368;-83
2021/12/24 14:32:28;;;;;;;3.92;1.63;;;;;;;;;;5052534;28;20547;-83
2021/12/24 14:34:59;;;;;;;2.10;1.85;;;;;;;;;;5049355;28;20064;-74
2021/12/24 14:37:37;;;;;;;3.20;1.70;;;;;;;;;;5034685;28;20044;-80
2021/12/24 14:40:14;;;;;;;5.93;2.05;;;;;;;;;;5049001;28;20106;-74
2021/12/24 14:42:47;;;;;;;3.72;1.20;;;;;;;;;;5052660;28;20428;-75
2021/12/24 14:45:20;;;;;;;3.00;1.45;;;;;;;;;;5052204;28;20132;-82
2021/12/24 14:47:48;;;;;;;;;;;;;;;;;;5052777;28;20107;-75
2021/12/24 14:50:20;;;;;;;1.80;1.38;;;;;;;;;;5052560;28;19921;-80
2021/12/24 14:53:06;;;;;;;1.90;1.30;;;;;;;;;;5052139;28;20073;-81
2021/12/24 14:55:44;;;;;;;2.92;1.60;;;;;;;;;;5052574;28;20480;-75
2021/12/24 14:58:13;;;;;;;3.20;1.50;;;;;;;;;;5052331;28;20044;-75
2021/12/24 15:00:53;;;;;;;2.22;1.42;;;;;;;;;;5034766;28;20045;-75
2021/12/24 15:03:23;;;;;;;3.05;1.50;;;;;;;;;;5043488;28;20053;-79
2021/12/24 15:05:54;;;;;;;;;;;;;;;;;;5032657;28;20052;-78
2021/12/24 15:08:25;;;;;;;2.75;1.67;;;;;;;;;;5032691;28;20391;-83
2021/12/24 15:10:58;;;;;;;4.00;1.85;;;;;;;;;;5032396;28;20075;-83
2021/12/24 15:13:27;;;;;;;2.97;1.75;;;;;;;;;;5032211;28;20120;-83
2021/12/24 15:15:55;;;;;;;4.10;1.85;;;;;;;;;;5032408;28;20381;-81
2021/12/24 15:18:23;;;;;;;2.83;1.90;;;;;;;;;;5032105;28;20496;-76
2021/12/24 15:20:53;;;;;;;6.43;1.90;;;;;;;;;;5032254;28;20512;-77
2021/12/24 15:23:23;;;;;;;4.15;2.70;;;;;;;;;;5032225;28;20065;-78
2021/12/24 15:25:51;;;;;;;6.70;4.95;;;;;;;;;;5032188;28;20120;-76
2021/12/24 15:28:20;;;;;;;4.30;3.90;;;;;;;;;;5031870;28;20397;-78
2021/12/24 15:30:48;;;;;;;9.98;3.40;;;;;;;;;;5032258;28;20045;-84
2021/12/24 15:33:19;;;;;;;5.45;2.38;;;;;;;;;;5031971;28;20034;-78
2021/12/24 15:35:47;;;;;;;5.20;3.47;;;;;;;;;;5034427;28;20034;-78
2021/12/24 15:38:18;;;;;;;5.40;2.60;;;;;;;;;;5035831;28;20037;-76
2021/12/24 15:40:46;;;;;;;5.05;3.03;;;;;;;;;;5035456;28;20051;-75
2021/12/24 15:43:16;;;;;;;8.38;3.25;;;;;;;;;;5035799;28;20041;-78
2021/12/24 15:45:44;;;;;;;6.85;3.35;;;;;;;;;;5035367;28;20049;-80
2021/12/24 15:48:12;;;;;;;12.23;3.30;;;;;;;;;;5035407;28;20054;-75
2021/12/24 15:50:41;;;;;;;4.00;3.30;;;;;;;;;;5017588;28;20432;-78
2021/12/24 15:53:10;;;;;;;10.05;3.72;;;;;;;;;;5035080;28;20038;-78
2021/12/24 15:55:46;;;;;;;5.15;3.35;;;;;;;;;;5035187;28;20061;-80
2021/12/24 15:58:19;;;;;;;6.57;3.65;;;;;;;;;;5035263;28;20041;-75
2021/12/24 16:00:51;;;;;;;7.15;3.30;;;;;;;;;;5017946;28;20128;-81
2021/12/24 16:03:19;;;;;;;4.40;3.60;;;;;;;;;;5035309;28;20505;-79
2021/12/24 16:05:49;;;;;;;5.55;3.50;;;;;;;;;;5034527;28;20045;-83
2021/12/24 16:08:18;;;;;;;7.47;3.85;;;;;;;;;;5035114;28;20063;-78
2021/12/24 16:10:47;;;;;;;9.38;4.78;;;;;;;;;;5034990;28;20048;-83
2021/12/24 16:13:17;;;;;;;6.93;4.70;;;;;;;;;;5034957;28;20554;-75
2021/12/24 16:15:47;;;;;;;7.60;4.85;;;;;;;;;;5035566;28;20059;-83
2021/12/24 16:18:18;;;;;;;5.72;3.90;;;;;;;;;;5017767;28;20504;-83
2021/12/24 16:20:47;;;;;;;6.72;4.70;;;;;;;;;;5034243;28;20069;-83
2021/12/24 16:23:14;;;;;;;7.72;5.18;;;;;;;;;;5034978;28;20048;-81
2021/12/24 16:25:43;;;;;;;11.68;5.55;;;;;;;;;;5017238;28;20132;-83
2021/12/24 16:28:10;;;;;;;8.60;5.22;;;;;;;;;;5034982;28;20048;-78
2021/12/24 16:30:40;;;;;;;11.15;6.68;;;;;;;;;;5034561;28;20121;-77
2021/12/24 16:33:09;;;;;;;11.13;6.95;;;;;;;;;;5034835;28;20064;-75
2021/12/24 16:35:37;;;;;;;13.63;8.45;;;;;;;;;;5034377;28;20046;-78
2021/12/24 16:38:08;;;;;;;13.98;8.50;;;;;;;;;;5034695;28;20053;-77
2021/12/24 16:40:39;;;;;;;15.88;8.13;;;;;;;;;;5034187;28;20048;-80
2021/12/24 16:43:10;;;;;;;14.23;8.63;;;;;;;;;;5034663;28;20052;-76
2021/12/24 16:45:40;;;;;;;11.73;8.30;;;;;;;;;;5016825;28;20136;-82
2021/12/24 16:48:09;;;;;;;14.75;7.97;;;;;;;;;;5034269;28;20048;-83
2021/12/24 16:50:38;;;;;;;13.40;7.75;;;;;;;;;;5034264;28;20546;-81
2021/12/24 16:53:07;;;;;;;20.10;7.68;;;;;;;;;;5032818;28;20400;-83
2021/12/24 16:55:35;;;;;;;11.75;7.20;;;;;;;;;;5016898;28;20124;-75
2021/12/24 16:58:04;;;;;;;13.75;7.07;;;;;;;;;;5034265;28;20045;-77